createdAt,value
2023-03-26T00:01:47.362Z,21.23
2023-03-26T00:04:19.776Z,22.90
2023-03-26T00:06:52.271Z,33.90
2023-03-26T00:09:22.349Z,19.10
2023-03-26T00:11:53.017Z,12.67
2023-03-26T00:14:22.863Z,13.87
2023-03-26T00:16:54.236Z,15.10
2023-03-26T00:19:24.167Z,17.93
2023-03-26T00:21:57.847Z,23.30
2023-03-26T00:24:30.918Z,24.60
2023-03-26T00:27:01.294Z,10.30
2023-03-26T00:29:33.415Z,11.13
2023-03-26T00:32:03.707Z,23.70
2023-03-26T00:34:34.560Z,23.80
2023-03-26T00:37:07.077Z,15.77
2023-03-26T00:39:37.567Z,31.27
2023-03-26T00:42:08.369Z,34.23
2023-03-26T00:44:38.252Z,36.50
2023-03-26T00:47:08.528Z,31.93
2023-03-26T00:49:39.607Z,31.80
2023-03-26T00:52:12.552Z,25.93
2023-03-26T00:54:42.903Z,10.10
2023-03-26T00:57:20.295Z,13.23
2023-03-26T01:00:00.191Z,13.87
2023-03-26T01:02:30.232Z,15.23
2023-03-26T01:05:03.097Z,33.83
2023-03-26T01:07:35.808Z,32.50
2023-03-26T01:10:05.728Z,10.40
2023-03-26T01:12:35.658Z,31.90
2023-03-26T01:15:08.417Z,35.70
2023-03-26T01:17:38.817Z,22.13
2023-03-26T01:20:15.835Z,18.70
2023-03-26T01:22:54.068Z,23.67
2023-03-26T01:25:30.408Z,30.30
2023-03-26T01:28:01.316Z,28.73
2023-03-26T01:30:41.743Z,29.07
2023-03-26T01:33:20.505Z,35.43
2023-03-26T01:35:57.682Z,23.60
2023-03-26T01:38:35.696Z,19.57
2023-03-26T01:41:13.410Z,25.50
2023-03-26T01:43:48.359Z,28.40
2023-03-26T01:46:20.109Z,45.33
2023-03-26T01:48:51.160Z,65.63
2023-03-26T01:51:32.659Z,20.80
2023-03-26T01:54:04.101Z,18.43
2023-03-26T01:56:44.424Z,27.40
2023-03-26T01:59:32.254Z,23.07
2023-03-26T02:02:08.221Z,16.43
2023-03-26T02:04:45.237Z,36.10
2023-03-26T02:07:21.278Z,26.63
2023-03-26T02:09:55.513Z,24.37
2023-03-26T02:12:28.959Z,28.07
2023-03-26T02:14:58.815Z,37.37
2023-03-26T02:17:30.317Z,22.47
2023-03-26T02:20:05.998Z,22.60
2023-03-26T02:22:41.135Z,10.83
2023-03-26T02:25:16.057Z,5.03
2023-03-26T02:27:50.819Z,5.87
2023-03-26T02:30:27.036Z,4.80
2023-03-26T02:33:01.432Z,6.90
2023-03-26T02:35:40.638Z,6.60
2023-03-26T02:38:14.881Z,5.53
2023-03-26T02:40:45.440Z,6.43
2023-03-26T02:43:17.916Z,6.73
2023-03-26T02:45:47.873Z,5.40
2023-03-26T02:48:38.081Z,4.83
2023-03-26T02:51:21.422Z,4.83
2023-03-26T02:54:02.299Z,4.90
2023-03-26T02:56:34.686Z,5.50
2023-03-26T02:59:39.979Z,4.37
2023-03-26T03:02:30.509Z,5.03
2023-03-26T03:05:10.277Z,5.53
2023-03-26T03:07:40.681Z,5.43
2023-03-26T03:10:14.089Z,4.70
2023-03-26T03:13:06.016Z,9.00
2023-03-26T03:15:38.569Z,15.57
2023-03-26T03:18:08.967Z,30.47
2023-03-26T03:20:38.888Z,15.30
2023-03-26T03:23:12.925Z,8.60
2023-03-26T03:25:43.870Z,17.87
2023-03-26T03:28:18.716Z,26.47
2023-03-26T03:30:53.388Z,23.03
2023-03-26T03:33:30.609Z,24.50
2023-03-26T03:36:01.310Z,12.77
2023-03-26T03:38:32.088Z,16.10
2023-03-26T03:41:01.977Z,12.40
2023-03-26T03:43:33.330Z,14.07
2023-03-26T03:46:13.901Z,15.33
2023-03-26T03:48:50.180Z,41.33
2023-03-26T03:51:46.278Z,26.67
2023-03-26T03:54:26.080Z,30.13
2023-03-26T03:57:06.690Z,40.80
2023-03-26T04:00:01.030Z,45.63
2023-03-26T04:02:47.843Z,22.57
2023-03-26T04:05:18.837Z,29.83
2023-03-26T04:07:51.577Z,31.40
2023-03-26T04:10:43.867Z,20.80
2023-03-26T04:13:15.785Z,19.77
2023-03-26T04:15:58.333Z,24.90
2023-03-26T04:18:32.534Z,24.77
2023-03-26T04:21:09.595Z,22.30
2023-03-26T04:23:39.505Z,21.37
2023-03-26T04:26:21.715Z,18.10
2023-03-26T04:29:12.070Z,17.77
2023-03-26T04:31:43.296Z,20.43
2023-03-26T04:34:24.635Z,23.87
2023-03-26T04:37:16.722Z,18.47
2023-03-26T04:39:54.577Z,23.53
2023-03-26T04:42:37.809Z,39.93
2023-03-26T04:45:17.946Z,38.23
2023-03-26T04:47:50.613Z,31.67
2023-03-26T04:50:23.498Z,27.70
2023-03-26T04:52:56.671Z,40.73
2023-03-26T04:55:52.260Z,106.83
2023-03-26T04:58:40.171Z,111.27
2023-03-26T05:01:12.019Z,49.37
2023-03-26T05:03:46.733Z,54.87
2023-03-26T05:06:21.141Z,66.27
2023-03-26T05:08:53.118Z,48.77
2023-03-26T05:11:43.618Z,34.77
2023-03-26T05:14:14.021Z,53.73
2023-03-26T05:16:46.559Z,58.37
2023-03-26T05:19:16.857Z,48.73
2023-03-26T05:21:49.469Z,49.50
2023-03-26T05:24:20.452Z,34.43
2023-03-26T05:26:50.593Z,39.43
2023-03-26T05:29:26.125Z,58.43
2023-03-26T05:31:58.113Z,35.43
2023-03-26T05:34:28.150Z,44.67
2023-03-26T05:37:00.735Z,44.10
2023-03-26T05:39:46.288Z,38.07
2023-03-26T05:42:44.715Z,22.00
2023-03-26T05:45:40.722Z,19.07
2023-03-26T05:48:22.722Z,20.30
2023-03-26T05:50:53.926Z,25.20
2023-03-26T05:53:28.470Z,24.23
2023-03-26T05:56:17.044Z,22.53
2023-03-26T06:05:16.134Z,16.83
2023-03-26T06:08:12.326Z,32.20
2023-03-26T06:10:45.599Z,34.67
2023-03-26T06:13:16.358Z,40.27
2023-03-26T06:15:49.020Z,25.40
2023-03-26T06:18:45.344Z,39.33
2023-03-26T06:21:32.019Z,45.57
2023-03-26T06:24:10.519Z,31.50
2023-03-26T06:26:49.968Z,34.60
2023-03-26T06:29:38.337Z,47.30
2023-03-26T06:32:28.574Z,64.73
2023-03-26T06:35:04.224Z,115.57
2023-03-26T06:37:34.127Z,47.90
2023-03-26T06:40:06.131Z,47.93
2023-03-26T06:43:08.927Z,46.63
2023-03-26T06:46:02.003Z,40.43
2023-03-26T06:48:52.663Z,47.03
2023-03-26T06:51:51.794Z,23.53
2023-03-26T06:54:41.692Z,32.60
2023-03-26T06:57:30.484Z,45.40
2023-03-26T07:00:29.522Z,31.90
2023-03-26T07:03:20.078Z,58.10
2023-03-26T07:06:09.714Z,41.00
2023-03-26T07:08:58.593Z,18.70
2023-03-26T07:11:47.131Z,31.30
2023-03-26T07:14:25.034Z,37.57
2023-03-26T07:17:20.866Z,30.80
2023-03-26T07:19:58.633Z,26.60
2023-03-26T07:22:30.628Z,68.73
2023-03-26T07:25:12.873Z,74.00
2023-03-26T07:28:09.226Z,56.50
2023-03-26T07:31:08.161Z,10.80
2023-03-26T07:33:52.279Z,18.83
2023-03-26T07:36:50.549Z,43.70
2023-03-26T07:39:42.098Z,36.03
2023-03-26T07:42:52.042Z,6.90
2023-03-26T07:45:47.134Z,13.10
2023-03-26T07:49:00.246Z,7.90
2023-03-26T07:51:57.056Z,6.53
2023-03-26T07:54:51.086Z,7.77
2023-03-26T07:57:47.652Z,6.60
2023-03-26T08:00:42.525Z,4.70
2023-03-26T08:03:27.999Z,5.80
2023-03-26T08:06:29.013Z,6.80
2023-03-26T08:09:14.119Z,6.20
2023-03-26T08:12:10.779Z,7.33
2023-03-26T08:14:53.000Z,8.17
2023-03-26T08:17:31.777Z,10.83
2023-03-26T08:20:17.274Z,30.33
2023-03-26T08:22:56.839Z,23.87
2023-03-26T08:25:33.593Z,6.13
2023-03-26T08:28:22.990Z,5.47
2023-03-26T08:30:55.452Z,5.90
2023-03-26T08:33:29.874Z,5.00
2023-03-26T08:35:59.962Z,6.43
2023-03-26T08:38:32.488Z,7.23
2023-03-26T08:41:33.204Z,6.93
2023-03-26T08:44:32.834Z,7.00
2023-03-26T08:47:31.782Z,7.30
2023-03-26T08:50:43.822Z,7.70
2023-03-26T08:53:48.986Z,7.73
2023-03-26T08:56:29.688Z,7.90
2023-03-26T08:59:41.357Z,7.00
2023-03-26T09:02:36.812Z,10.17
2023-03-26T09:05:30.524Z,7.00
2023-03-26T09:08:36.973Z,9.07
2023-03-26T09:11:40.120Z,8.07
2023-03-26T09:14:44.894Z,7.77
2023-03-26T09:17:51.484Z,7.27
2023-03-26T09:20:56.378Z,6.40
2023-03-26T09:24:02.800Z,7.33
2023-03-26T09:26:48.218Z,6.80
2023-03-26T09:29:52.923Z,6.63
2023-03-26T09:32:56.374Z,6.20
2023-03-26T09:35:45.068Z,6.83
2023-03-26T09:38:42.206Z,6.80
2023-03-26T09:41:19.197Z,6.40
2023-03-26T09:44:34.361Z,6.00
2023-03-26T09:47:39.497Z,5.13
2023-03-26T09:50:29.994Z,5.47
2023-03-26T09:53:25.063Z,4.90
2023-03-26T09:56:19.575Z,4.97
2023-03-26T09:59:21.279Z,4.60
2023-03-26T10:02:04.601Z,5.60
2023-03-26T10:04:59.993Z,4.60
2023-03-26T10:07:58.803Z,6.60
2023-03-26T10:10:38.490Z,4.60
2023-03-26T10:13:16.102Z,4.93
2023-03-26T10:16:02.298Z,4.67
2023-03-26T10:18:43.009Z,4.03
2023-03-26T10:21:25.674Z,3.93
2023-03-26T10:24:19.249Z,4.60
2023-03-26T10:27:18.795Z,4.50
2023-03-26T10:30:20.769Z,4.67
2023-03-26T10:33:00.604Z,5.53
2023-03-26T10:35:44.588Z,4.40
2023-03-26T10:38:27.350Z,4.60
2023-03-26T10:41:09.152Z,4.50
2023-03-26T10:44:08.771Z,4.90
2023-03-26T10:46:55.618Z,4.30
2023-03-26T10:49:50.108Z,5.00
2023-03-26T10:52:24.867Z,4.97
2023-03-26T10:55:05.817Z,4.60
2023-03-26T10:57:45.202Z,4.30
2023-03-26T11:00:25.670Z,3.80
2023-03-26T11:03:22.535Z,5.10
2023-03-26T11:05:58.939Z,4.60
2023-03-26T11:08:37.311Z,3.70
2023-03-26T11:11:21.708Z,4.10
2023-03-26T11:14:01.525Z,3.93
2023-03-26T11:16:43.341Z,4.27
2023-03-26T11:19:23.302Z,4.17
2023-03-26T11:22:00.546Z,4.13
2023-03-26T11:24:57.265Z,3.63
2023-03-26T11:27:44.883Z,3.60
2023-03-26T11:30:26.614Z,4.00
2023-03-26T11:32:59.946Z,4.70
2023-03-26T11:35:39.402Z,3.97
2023-03-26T11:38:19.001Z,3.97
2023-03-26T11:40:52.213Z,3.43
2023-03-26T11:43:38.477Z,4.53
2023-03-26T11:46:13.640Z,3.80
2023-03-26T11:48:47.153Z,3.70
2023-03-26T11:51:23.170Z,3.33
2023-03-26T11:53:54.727Z,4.53
2023-03-26T11:56:32.425Z,3.33
2023-03-26T11:59:07.769Z,4.07
2023-03-26T12:01:50.665Z,2.83
2023-03-26T12:04:23.284Z,1.97
2023-03-26T12:06:56.729Z,2.27
2023-03-26T12:09:27.535Z,2.47
2023-03-26T12:12:03.169Z,1.80
2023-03-26T12:14:38.039Z,2.00
2023-03-26T12:17:10.583Z,2.20
2023-03-26T12:19:42.753Z,1.80
2023-03-26T12:22:32.361Z,1.30
2023-03-26T12:25:17.766Z,2.17
2023-03-26T12:27:50.431Z,1.90
2023-03-26T12:30:28.720Z,1.60
2023-03-26T12:33:03.784Z,1.37
2023-03-26T12:35:35.949Z,1.60
2023-03-26T12:38:25.551Z,1.53
2023-03-26T12:41:08.724Z,1.27
2023-03-26T12:44:54.325Z,1.93
2023-03-26T12:47:57.721Z,1.93
2023-03-26T12:49:44.365Z,1.63
2023-03-26T12:52:29.383Z,3.23
2023-03-26T12:55:03.838Z,1.83
2023-03-26T12:57:52.543Z,1.83
2023-03-26T13:00:31.789Z,1.83
2023-03-26T13:03:34.810Z,1.80
2023-03-26T13:06:21.916Z,1.80
2023-03-26T13:09:09.429Z,2.00
2023-03-26T13:11:47.062Z,1.90
2023-03-26T13:14:36.793Z,1.70
2023-03-26T13:17:19.169Z,1.50
2023-03-26T13:20:01.932Z,1.63
2023-03-26T13:22:40.931Z,1.80
2023-03-26T13:25:24.486Z,1.63
2023-03-26T13:28:03.099Z,1.20
2023-03-26T13:30:39.625Z,1.20
2023-03-26T13:33:29.143Z,0.90
2023-03-26T13:36:22.596Z,1.20
2023-03-26T13:39:12.985Z,1.70
2023-03-26T13:41:58.965Z,1.23
2023-03-26T13:44:37.414Z,1.23
2023-03-26T13:47:13.626Z,1.47
2023-03-26T13:49:47.705Z,1.20
2023-03-26T13:52:25.613Z,0.80
2023-03-26T13:55:01.115Z,1.20
2023-03-26T13:57:36.089Z,0.70
2023-03-26T14:00:09.975Z,0.87
2023-03-26T14:02:45.414Z,0.87
2023-03-26T14:05:26.013Z,0.80
2023-03-26T14:08:06.995Z,0.87
2023-03-26T14:10:43.042Z,0.80
2023-03-26T14:13:19.455Z,1.00
2023-03-26T14:15:52.508Z,0.70
2023-03-26T14:18:33.190Z,1.20
2023-03-26T14:21:33.655Z,0.80
2023-03-26T14:24:21.873Z,0.70
2023-03-26T14:27:11.119Z,0.80
2023-03-26T14:30:02.693Z,1.00
2023-03-26T14:32:42.838Z,1.20
2023-03-26T14:35:37.691Z,1.63
2023-03-26T14:38:38.283Z,0.93
2023-03-26T14:41:27.273Z,0.93
2023-03-26T14:44:20.837Z,1.10
2023-03-26T14:47:14.795Z,0.73
2023-03-26T14:50:22.720Z,1.07
2023-03-26T14:53:01.196Z,0.97
2023-03-26T14:55:51.112Z,0.70
2023-03-26T14:59:00.987Z,0.87
2023-03-26T15:01:32.066Z,0.70
2023-03-26T15:08:39.492Z,1.00
2023-03-26T15:11:30.620Z,0.87
2023-03-26T15:14:34.105Z,0.90
2023-03-26T15:17:40.665Z,0.70
2023-03-26T15:20:40.756Z,1.00
2023-03-26T15:23:46.805Z,0.80
2023-03-26T15:26:48.833Z,0.70
2023-03-26T15:30:01.198Z,0.73
2023-03-26T15:32:59.798Z,0.60
2023-03-26T15:35:51.265Z,0.60
2023-03-26T15:38:41.256Z,0.60
2023-03-26T15:41:24.614Z,0.50
2023-03-26T15:44:23.679Z,0.60
2023-03-26T15:47:02.199Z,0.63
2023-03-26T15:49:41.509Z,0.60
2023-03-26T15:52:24.072Z,0.80
2023-03-26T15:55:01.405Z,0.70
2023-03-26T15:57:39.225Z,0.80
2023-03-26T16:00:23.141Z,1.10
2023-03-26T16:03:31.154Z,1.33
2023-03-26T16:06:31.186Z,0.77
2023-03-26T16:09:16.597Z,6.83
2023-03-26T16:11:50.535Z,2.43
2023-03-26T16:14:25.077Z,6.70
2023-03-26T16:16:58.737Z,2.23
2023-03-26T16:19:52.434Z,11.30
2023-03-26T16:22:43.541Z,2.70
2023-03-26T16:25:29.619Z,0.80
2023-03-26T16:28:27.210Z,0.60
2023-03-26T16:31:37.508Z,0.50
2023-03-26T16:34:42.263Z,0.70
2023-03-26T16:37:43.930Z,0.60
2023-03-26T16:40:29.757Z,0.70
2023-03-26T16:43:14.945Z,0.50
2023-03-26T16:45:52.909Z,0.50
2023-03-26T16:48:32.319Z,0.40
2023-03-26T16:51:11.659Z,0.40
2023-03-26T16:53:51.456Z,0.60
2023-03-26T16:56:36.700Z,0.67
2023-03-26T16:59:28.972Z,0.40
2023-03-26T17:02:08.527Z,0.50
2023-03-26T17:04:40.195Z,0.40
2023-03-26T17:07:18.157Z,0.63
2023-03-26T17:10:01.849Z,0.60
2023-03-26T17:12:39.604Z,0.50
2023-03-26T17:15:20.619Z,0.60
2023-03-26T17:18:04.285Z,1.13
2023-03-26T17:20:42.487Z,0.97
2023-03-26T17:23:30.257Z,0.40
2023-03-26T17:26:14.687Z,0.60
2023-03-26T17:28:58.244Z,0.70
2023-03-26T17:31:42.993Z,0.80
2023-03-26T17:34:47.035Z,0.90
2023-03-26T17:37:45.832Z,0.70
2023-03-26T17:40:55.439Z,0.73
2023-03-26T17:43:47.906Z,0.80
2023-03-26T17:46:37.390Z,0.70
2023-03-26T17:49:16.398Z,1.20
2023-03-26T17:51:51.620Z,0.80
2023-03-26T17:54:30.507Z,0.90
2023-03-26T17:57:08.670Z,0.93
2023-03-26T17:59:39.441Z,0.80
2023-03-26T18:02:18.078Z,0.90
2023-03-26T18:04:50.479Z,0.90
2023-03-26T18:07:52.340Z,1.10
2023-03-26T18:10:36.706Z,1.20
2023-03-26T18:13:49.268Z,1.23
2023-03-26T18:16:21.133Z,1.30
2023-03-26T18:18:54.842Z,2.00
2023-03-26T18:21:30.028Z,1.90
2023-03-26T18:24:00.734Z,1.70
2023-03-26T18:26:38.672Z,1.90
2023-03-26T18:29:24.888Z,2.00
2023-03-26T18:31:58.410Z,1.70
2023-03-26T18:34:29.931Z,2.03
2023-03-26T18:37:15.602Z,2.17
2023-03-26T18:39:59.547Z,1.40
2023-03-26T18:42:32.338Z,2.20
2023-03-26T18:45:10.901Z,2.30
2023-03-26T18:47:40.991Z,3.17
2023-03-26T18:50:19.176Z,2.70
2023-03-26T18:52:49.260Z,2.30
2023-03-26T18:55:19.964Z,3.23
2023-03-26T18:57:53.411Z,4.90
2023-03-26T19:00:28.899Z,4.90
2023-03-26T19:03:07.329Z,4.20
2023-03-26T19:05:39.021Z,3.63
2023-03-26T19:08:09.600Z,2.63
2023-03-26T19:10:40.684Z,3.70
2023-03-26T19:13:16.806Z,2.90
2023-03-26T19:15:52.634Z,2.20
2023-03-26T19:18:26.028Z,2.60
2023-03-26T19:20:59.174Z,2.33
2023-03-26T19:23:32.904Z,2.87
2023-03-26T19:26:05.434Z,2.67
2023-03-26T19:28:38.368Z,2.80
2023-03-26T19:31:27.725Z,2.73
2023-03-26T19:34:00.666Z,2.33
2023-03-26T19:36:31.913Z,2.60
2023-03-26T19:39:24.273Z,2.93
2023-03-26T19:42:00.876Z,2.40
2023-03-26T19:44:32.926Z,2.20
2023-03-26T19:47:09.605Z,1.97
2023-03-26T19:49:50.495Z,2.03
2023-03-26T19:52:25.537Z,2.77
2023-03-26T19:57:47.651Z,3.17
2023-03-26T20:00:19.218Z,1.97
2023-03-26T20:02:52.890Z,2.60
2023-03-26T20:05:26.805Z,2.93
2023-03-26T20:08:00.059Z,3.23
2023-03-26T20:10:33.554Z,2.30
2023-03-26T20:13:03.530Z,3.03
2023-03-26T20:15:39.003Z,3.07
2023-03-26T20:18:12.410Z,2.20
2023-03-26T20:20:43.846Z,2.30
2023-03-26T20:23:19.083Z,2.47
2023-03-26T20:25:54.736Z,2.20
2023-03-26T20:28:24.803Z,2.00
2023-03-26T20:30:56.196Z,1.70
2023-03-26T20:33:29.389Z,2.60
2023-03-26T20:36:00.512Z,3.30
2023-03-26T20:38:39.232Z,2.00
2023-03-26T20:41:12.705Z,1.93
2023-03-26T20:43:43.124Z,1.87
2023-03-26T20:49:15.502Z,1.97
2023-03-26T20:51:45.768Z,2.73
2023-03-26T20:54:19.618Z,1.43
2023-03-26T20:56:50.460Z,2.03
2023-03-26T20:59:23.057Z,2.43
2023-03-26T21:01:54.610Z,2.00
2023-03-26T21:04:27.676Z,2.90
2023-03-26T21:07:07.025Z,2.03
2023-03-26T21:09:42.513Z,1.47
2023-03-26T21:12:23.804Z,2.40
2023-03-26T21:14:55.916Z,2.10
2023-03-26T21:17:27.339Z,1.70
2023-03-26T21:20:09.122Z,1.90
2023-03-26T21:22:44.633Z,1.80
2023-03-26T21:25:23.878Z,3.60
2023-03-26T21:28:02.517Z,3.00
2023-03-26T21:30:33.733Z,1.67
2023-03-26T21:33:05.566Z,1.67
2023-03-26T21:35:39.336Z,1.53
2023-03-26T21:38:09.864Z,2.63
2023-03-26T21:40:44.583Z,1.83
2023-03-26T21:43:20.804Z,1.50
2023-03-26T21:45:54.150Z,2.30
2023-03-26T21:48:24.857Z,2.30
2023-03-26T21:51:02.547Z,1.40
2023-03-26T21:53:33.010Z,1.23
2023-03-26T21:56:13.615Z,1.77
2023-03-26T21:58:54.114Z,1.57
2023-03-26T22:01:34.819Z,1.80
2023-03-26T22:04:13.049Z,2.50
2023-03-26T22:06:49.857Z,0.90
2023-03-26T22:09:26.340Z,1.50
2023-03-26T22:12:03.688Z,1.10
2023-03-26T22:14:34.621Z,1.70
2023-03-26T22:17:04.534Z,1.40
2023-03-26T22:19:34.920Z,1.93
2023-03-26T22:22:10.677Z,2.00
2023-03-26T22:24:40.672Z,1.97
2023-03-26T22:27:13.025Z,2.13
2023-03-26T22:29:43.308Z,2.37
2023-03-26T22:32:13.407Z,1.90
2023-03-26T22:34:45.267Z,2.70
2023-03-26T22:37:18.390Z,2.23
2023-03-26T22:39:48.598Z,2.30
2023-03-26T22:42:19.995Z,3.17
2023-03-26T22:44:49.850Z,2.40
2023-03-26T22:47:22.186Z,3.00
2023-03-26T22:49:52.144Z,2.20
2023-03-26T22:52:25.647Z,2.50
2023-03-26T22:54:55.512Z,2.20
2023-03-26T22:57:26.380Z,2.80
2023-03-26T22:59:56.334Z,3.20
2023-03-26T23:02:26.559Z,2.50
2023-03-26T23:04:56.512Z,2.43
2023-03-26T23:07:31.584Z,2.83
2023-03-26T23:10:01.463Z,2.00
2023-03-26T23:12:31.391Z,2.80
2023-03-26T23:15:05.136Z,2.67
2023-03-26T23:17:38.431Z,2.73
2023-03-26T23:20:15.536Z,2.33
2023-03-26T23:22:48.234Z,2.70
2023-03-26T23:25:18.292Z,3.20
2023-03-26T23:27:49.093Z,2.80
2023-03-26T23:30:19.472Z,2.63
2023-03-26T23:32:51.360Z,3.40
2023-03-26T23:35:21.306Z,2.60
2023-03-26T23:37:54.517Z,2.97
2023-03-26T23:40:25.150Z,3.10
2023-03-26T23:42:55.764Z,2.30
2023-03-26T23:45:26.005Z,2.37
2023-03-26T23:47:56.541Z,2.97
2023-03-26T23:50:29.232Z,2.40
2023-03-26T23:53:02.076Z,2.40
2023-03-26T23:55:31.975Z,2.80
2023-03-26T23:58:02.693Z,2.40
